Time;durP1;ratioP1;P1;durP2;ratioP2;P2;SDS_P1;SDS_P2;PMS_P1;PMS_P2;Temp;Humidity;BMP_temperature;BMP_pressure;BME280_temperature;BME280_humidity;BME280_pressure;Samples;Min_cycle;Max_cycle;Signal;HPM_P1;HPM_P2
2021/07/09 00:01:31;;;;;;;11.60;10.40;;;16.60;99.90;;;;;;4998245;28;20183;-81
2021/07/09 00:03:57;;;;;;;12.07;10.33;;;16.60;99.90;;;;;;4998647;28;20176;-82
2021/07/09 00:06:22;;;;;;;13.87;11.03;;;16.60;99.90;;;;;;4998302;28;20223;-81
2021/07/09 00:08:48;;;;;;;13.60;10.87;;;16.60;99.90;;;;;;4997689;28;20246;-82
2021/07/09 00:11:14;;;;;;;14.70;11.17;;;16.60;99.90;;;;;;4981820;28;20179;-83
2021/07/09 00:13:40;;;;;;;14.03;10.67;;;16.60;99.90;;;;;;4997774;28;20207;-82
2021/07/09 00:16:05;;;;;;;12.73;10.50;;;16.60;99.90;;;;;;5000315;28;20283;-81
2021/07/09 00:18:31;;;;;;;15.47;11.27;;;16.60;99.90;;;;;;4998415;28;20176;-82
2021/07/09 00:20:57;;;;;;;13.83;11.17;;;16.50;99.90;;;;;;4997656;28;20176;-81
2021/07/09 00:23:23;;;;;;;14.23;10.93;;;16.60;99.90;;;;;;4998904;28;20273;-82
2021/07/09 00:25:48;;;;;;;16.50;10.87;;;16.60;99.90;;;;;;4997949;28;20203;-81
2021/07/09 00:28:14;;;;;;;14.33;10.57;;;16.50;99.90;;;;;;4996814;28;20336;-82
2021/07/09 00:30:39;;;;;;;13.97;11.60;;;16.50;99.90;;;;;;4995965;28;20228;-81
2021/07/09 00:33:06;;;;;;;14.00;11.20;;;16.50;99.90;;;;;;4996369;28;20246;-82
2021/07/09 00:35:32;;;;;;;15.83;11.53;;;16.50;99.90;;;;;;4996203;28;20687;-81
2021/07/09 00:37:57;;;;;;;14.50;11.83;;;16.50;99.90;;;;;;4996842;28;20525;-82
2021/07/09 00:40:23;;;;;;;14.33;11.20;;;16.50;99.90;;;;;;4996406;28;20202;-81
2021/07/09 00:42:48;;;;;;;14.73;11.60;;;16.50;99.90;;;;;;4999405;28;20267;-79
2021/07/09 00:45:14;;;;;;;13.10;10.93;;;16.50;99.90;;;;;;4997444;28;20206;-82
2021/07/09 00:47:43;;;;;;;12.80;10.97;;;16.50;99.90;;;;;;4996818;28;20184;-82
2021/07/09 00:50:09;;;;;;;19.47;10.87;;;16.50;99.90;;;;;;4997396;28;20192;-82
2021/07/09 00:52:34;;;;;;;13.60;11.43;;;16.40;99.90;;;;;;4996398;28;20218;-82
2021/07/09 00:55:00;;;;;;;14.33;11.87;;;16.50;99.90;;;;;;4996806;28;20180;-81
2021/07/09 00:57:26;;;;;;;16.40;11.50;;;16.50;99.90;;;;;;4996875;28;20262;-82
2021/07/09 00:59:52;;;;;;;13.07;10.87;;;16.50;99.90;;;;;;4997324;28;20165;-84
2021/07/09 01:02:17;;;;;;;13.03;10.93;;;16.50;99.90;;;;;;4997087;28;20196;-84
2021/07/09 01:04:43;;;;;;;14.50;11.23;;;16.40;99.90;;;;;;4996574;28;20187;-81
2021/07/09 01:07:09;;;;;;;13.40;11.17;;;16.50;99.90;;;;;;4997020;28;20235;-81
2021/07/09 01:09:34;;;;;;;15.73;11.97;;;16.40;99.90;;;;;;4996474;28;20590;-82
2021/07/09 01:12:03;;;;;;;12.90;10.50;;;16.40;99.90;;;;;;4996513;28;20554;-82
2021/07/09 01:14:29;;;;;;;14.60;11.17;;;16.40;99.90;;;;;;4996310;28;20212;-81
2021/07/09 01:16:55;;;;;;;12.67;11.00;;;16.40;99.90;;;;;;4996326;28;20192;-82
2021/07/09 01:19:21;;;;;;;14.00;11.60;;;16.40;99.90;;;;;;4995309;28;20176;-82
2021/07/09 01:21:46;;;;;;;14.97;11.20;;;16.50;99.90;;;;;;4995491;28;20184;-80
2021/07/09 01:24:12;;;;;;;13.63;11.67;;;16.40;99.90;;;;;;4996065;28;20191;-82
2021/07/09 01:26:38;;;;;;;15.83;11.40;;;16.40;99.90;;;;;;4994820;28;20304;-82
2021/07/09 01:29:04;;;;;;;13.23;10.83;;;16.40;99.90;;;;;;4994942;28;20176;-81
2021/07/09 01:31:30;;;;;;;12.80;11.27;;;16.40;99.90;;;;;;5011810;28;20184;-81
2021/07/09 01:33:55;;;;;;;15.30;10.90;;;16.40;99.90;;;;;;4994912;28;20222;-82
2021/07/09 01:36:21;;;;;;;14.37;10.53;;;16.40;99.90;;;;;;4995777;28;20223;-81
2021/07/09 01:38:48;;;;;;;13.17;10.70;;;16.40;99.90;;;;;;4996557;28;20267;-79
2021/07/09 01:41:13;;;;;;;12.40;10.73;;;16.40;99.90;;;;;;4996309;28;20238;-82
2021/07/09 01:43:39;;;;;;;15.43;10.43;;;16.40;99.90;;;;;;4995323;28;20191;-82
2021/07/09 01:46:04;;;;;;;15.20;11.07;;;16.40;99.90;;;;;;5011462;28;20206;-83
2021/07/09 01:48:30;;;;;;;17.30;11.97;;;16.50;99.90;;;;;;4995096;28;20667;-82
2021/07/09 01:50:56;;;;;;;17.30;11.33;;;16.40;99.90;;;;;;4995299;28;20239;-81
2021/07/09 01:53:21;;;;;;;13.40;11.40;;;16.40;99.90;;;;;;4995874;28;20219;-82
2021/07/09 01:55:47;;;;;;;14.27;11.53;;;16.40;99.90;;;;;;4995718;28;20196;-82
2021/07/09 01:58:13;;;;;;;15.87;12.20;;;16.40;99.90;;;;;;4996076;28;20187;-82
2021/07/09 02:00:38;;;;;;;17.90;11.13;;;16.40;99.90;;;;;;4995452;28;20667;-81
2021/07/09 02:03:04;;;;;;;15.80;11.60;;;16.40;99.90;;;;;;4995883;28;20238;-81
2021/07/09 02:05:30;;;;;;;14.70;12.03;;;16.40;99.90;;;;;;4995288;28;20278;-82
2021/07/09 02:07:56;;;;;;;15.37;11.53;;;16.40;99.90;;;;;;4995889;28;20188;-82
2021/07/09 02:10:24;;;;;;;14.13;11.77;;;16.40;99.90;;;;;;4995370;28;20644;-82
2021/07/09 02:12:52;;;;;;;13.63;11.17;;;16.40;99.90;;;;;;4995999;28;20211;-82
2021/07/09 02:15:18;;;;;;;17.40;11.67;;;16.40;99.90;;;;;;4995553;28;20204;-82
2021/07/09 02:17:44;;;;;;;15.30;11.83;;;16.40;99.90;;;;;;4995753;28;20658;-82
2021/07/09 02:20:11;;;;;;;16.13;11.90;;;16.40;99.90;;;;;;5011840;28;20258;-81
2021/07/09 02:22:37;;;;;;;14.50;11.10;;;16.40;99.90;;;;;;4995574;28;20187;-81
2021/07/09 02:25:05;;;;;;;17.17;12.10;;;16.40;99.90;;;;;;4994777;28;20184;-84
2021/07/09 02:27:32;;;;;;;17.07;11.47;;;16.40;99.90;;;;;;4992202;28;20193;-83
2021/07/09 02:29:58;;;;;;;17.77;11.83;;;16.40;99.90;;;;;;4991716;28;20177;-84
2021/07/09 02:32:24;;;;;;;15.03;11.93;;;16.30;99.90;;;;;;4991391;28;20251;-83
2021/07/09 02:34:49;;;;;;;14.83;11.70;;;16.30;99.90;;;;;;4991583;28;20195;-84
2021/07/09 02:37:15;;;;;;;16.43;12.47;;;16.40;99.90;;;;;;4991399;28;20710;-84
2021/07/09 02:39:40;;;;;;;15.97;11.97;;;16.40;99.90;;;;;;4991635;28;20660;-85
2021/07/09 02:42:06;;;;;;;16.40;11.67;;;16.30;99.90;;;;;;4991416;28;20288;-83
2021/07/09 02:44:32;;;;;;;15.37;11.93;;;16.30;99.90;;;;;;4991466;28;20237;-84
2021/07/09 02:46:57;;;;;;;19.13;11.57;;;16.30;99.90;;;;;;4991489;28;20680;-85
2021/07/09 02:49:23;;;;;;;17.67;11.93;;;16.30;99.90;;;;;;4991231;28;20272;-83
2021/07/09 02:51:49;;;;;;;18.20;11.47;;;16.30;99.90;;;;;;4991750;28;20191;-84
2021/07/09 02:54:14;;;;;;;18.00;12.00;;;16.30;99.90;;;;;;4993573;28;20212;-84
2021/07/09 02:56:40;;;;;;;14.97;11.97;;;16.30;99.90;;;;;;4994861;28;20280;-84
2021/07/09 02:59:05;;;;;;;16.27;11.33;;;16.30;99.90;;;;;;4994741;28;20181;-84
2021/07/09 03:01:31;;;;;;;15.20;11.20;;;16.30;99.90;;;;;;4994725;28;20180;-85
2021/07/09 03:03:57;;;;;;;13.10;10.23;;;16.30;99.90;;;;;;4994728;28;20202;-83
2021/07/09 03:06:23;;;;;;;16.53;11.00;;;16.30;99.90;;;;;;4994656;28;20682;-84
2021/07/09 03:08:48;;;;;;;15.33;11.57;;;16.20;99.90;;;;;;5011017;28;20188;-84
2021/07/09 03:11:14;;;;;;;19.77;11.63;;;16.30;99.90;;;;;;4994667;28;20215;-84
2021/07/09 03:13:40;;;;;;;15.83;11.70;;;16.30;99.90;;;;;;4994521;28;20208;-84
2021/07/09 03:16:06;;;;;;;16.83;11.03;;;16.30;99.90;;;;;;4994537;28;20200;-84
2021/07/09 03:18:31;;;;;;;18.53;11.20;;;16.30;99.90;;;;;;4994681;28;20564;-84
2021/07/09 03:20:57;;;;;;;16.07;12.30;;;16.30;99.90;;;;;;4994387;28;20184;-82
2021/07/09 03:23:22;;;;;;;15.97;11.17;;;16.30;99.90;;;;;;4978176;28;20191;-84
2021/07/09 03:25:48;;;;;;;14.90;11.27;;;16.20;99.90;;;;;;4994344;28;20284;-83
2021/07/09 03:28:13;;;;;;;13.83;10.60;;;16.20;99.90;;;;;;4994186;28;20184;-84
2021/07/09 03:30:39;;;;;;;16.07;11.03;;;16.30;99.90;;;;;;4994157;28;20181;-84
2021/07/09 03:33:04;;;;;;;14.10;11.40;;;16.20;99.90;;;;;;4994283;28;20310;-84
2021/07/09 03:35:30;;;;;;;14.90;11.13;;;16.20;99.90;;;;;;4994366;28;20203;-84
2021/07/09 03:37:55;;;;;;;15.20;10.60;;;16.20;99.90;;;;;;4994441;28;20176;-84
2021/07/09 03:40:21;;;;;;;19.30;11.73;;;16.10;99.90;;;;;;4994028;28;20179;-83
2021/07/09 03:42:47;;;;;;;16.03;10.37;;;16.10;99.90;;;;;;4994270;28;20263;-85
2021/07/09 03:45:12;;;;;;;12.70;10.27;;;16.10;99.90;;;;;;4993930;28;20300;-85
2021/07/09 03:47:38;;;;;;;13.10;10.47;;;16.10;99.90;;;;;;4994090;28;20267;-84
2021/07/09 03:50:05;;;;;;;16.30;10.53;;;16.10;99.90;;;;;;5010088;28;20180;-84
2021/07/09 03:52:30;;;;;;;13.73;10.80;;;16.10;99.90;;;;;;4993840;28;20188;-84
2021/07/09 03:54:56;;;;;;;16.40;10.57;;;16.10;99.90;;;;;;4993715;28;20647;-84
2021/07/09 03:57:22;;;;;;;14.33;10.40;;;16.10;99.90;;;;;;5010115;28;20195;-84
2021/07/09 03:59:47;;;;;;;13.43;10.00;;;16.20;99.90;;;;;;4977313;28;20191;-83
2021/07/09 04:02:13;;;;;;;12.70;9.97;;;16.10;99.90;;;;;;4993707;28;20275;-85
2021/07/09 04:04:40;;;;;;;13.00;10.20;;;16.10;99.90;;;;;;4993303;28;20216;-83
2021/07/09 04:07:06;;;;;;;13.07;10.33;;;16.10;99.90;;;;;;4993668;28;20223;-84
2021/07/09 04:09:31;;;;;;;12.80;9.57;;;16.10;99.90;;;;;;4993365;28;20189;-84
2021/07/09 04:11:57;;;;;;;15.23;10.53;;;16.10;99.90;;;;;;4993582;28;20556;-84
2021/07/09 04:14:22;;;;;;;16.63;9.97;;;16.10;99.90;;;;;;4993340;28;20302;-84
2021/07/09 04:16:48;;;;;;;14.83;10.63;;;16.10;99.90;;;;;;5009773;28;20244;-83
2021/07/09 04:19:13;;;;;;;21.00;11.03;;;16.10;99.90;;;;;;4993213;28;20554;-85
2021/07/09 04:21:39;;;;;;;15.63;10.40;;;16.10;99.90;;;;;;4993412;28;20552;-83
2021/07/09 04:24:05;;;;;;;15.97;9.50;;;16.20;99.90;;;;;;4993145;28;20607;-84
2021/07/09 04:26:30;;;;;;;16.20;10.30;;;16.10;99.90;;;;;;4993152;28;20229;-83
2021/07/09 04:28:56;;;;;;;13.27;9.60;;;16.20;99.90;;;;;;4993071;28;20188;-85
2021/07/09 04:31:21;;;;;;;12.53;9.20;;;16.10;99.90;;;;;;4993189;28;20192;-84
2021/07/09 04:33:50;;;;;;;13.87;9.67;;;16.10;99.90;;;;;;4993752;28;20216;-84
2021/07/09 04:36:16;;;;;;;20.53;10.53;;;16.20;99.90;;;;;;4993483;28;20287;-85
2021/07/09 04:38:42;;;;;;;14.87;9.57;;;16.20;99.90;;;;;;4993046;28;20183;-84
2021/07/09 04:41:08;;;;;;;15.77;9.80;;;16.20;99.90;;;;;;4993382;28;20184;-85
2021/07/09 04:43:33;;;;;;;12.70;9.30;;;16.10;99.90;;;;;;4993117;28;20184;-84
2021/07/09 04:45:59;;;;;;;16.77;9.97;;;16.20;99.90;;;;;;4992894;28;20593;-83
2021/07/09 04:48:24;;;;;;;12.23;9.83;;;16.20;99.90;;;;;;4992928;28;20185;-84
2021/07/09 04:50:50;;;;;;;13.40;9.97;;;16.20;99.90;;;;;;4992848;28;20185;-85
2021/07/09 04:53:15;;;;;;;15.17;9.83;;;16.10;99.90;;;;;;4993105;28;20204;-84
2021/07/09 04:55:41;;;;;;;12.70;10.20;;;16.20;99.90;;;;;;4992712;28;20192;-83
2021/07/09 04:58:06;;;;;;;16.30;10.00;;;16.20;99.90;;;;;;4992890;28;20203;-83
2021/07/09 05:00:32;;;;;;;14.70;9.93;;;16.20;99.90;;;;;;4993346;28;20184;-85
2021/07/09 05:02:58;;;;;;;12.83;9.40;;;16.20;99.90;;;;;;4992780;28;20187;-84
2021/07/09 05:05:24;;;;;;;13.70;9.40;;;16.30;99.90;;;;;;5034160;23;20203;-73
2021/07/09 05:07:50;;;;;;;16.27;9.60;;;16.30;99.90;;;;;;5011732;28;20190;-70
2021/07/09 05:10:15;;;;;;;16.17;9.90;;;16.30;99.90;;;;;;5011414;28;20643;-70
2021/07/09 05:12:41;;;;;;;13.47;9.43;;;16.30;99.90;;;;;;5011614;28;20206;-70
2021/07/09 05:15:07;;;;;;;16.27;9.47;;;16.30;99.90;;;;;;5011625;28;20187;-70
2021/07/09 05:17:32;;;;;;;13.27;9.00;;;16.30;99.90;;;;;;4994696;28;20186;-70
2021/07/09 05:19:58;;;;;;;14.23;9.23;;;16.40;99.90;;;;;;5011454;28;20175;-70
2021/07/09 05:22:23;;;;;;;13.13;8.90;;;16.40;99.90;;;;;;4995334;28;20168;-70
2021/07/09 05:24:53;;;;;;;13.37;9.90;;;16.40;99.90;;;;;;5012670;28;20889;-70
2021/07/09 05:27:19;;;;;;;14.57;10.00;;;16.40;99.90;;;;;;4995763;28;20199;-70
2021/07/09 05:29:45;;;;;;;14.50;9.10;;;16.50;99.90;;;;;;5011276;28;20258;-70
2021/07/09 05:32:10;;;;;;;13.27;9.63;;;16.50;99.90;;;;;;5011698;28;20255;-70
2021/07/09 05:34:36;;;;;;;16.90;9.73;;;16.50;99.90;;;;;;5011654;28;20678;-70
2021/07/09 05:37:02;;;;;;;16.43;9.03;;;16.60;99.90;;;;;;5011563;28;20196;-70
2021/07/09 05:39:27;;;;;;;12.63;8.53;;;16.60;99.90;;;;;;4994981;28;20197;-70
2021/07/09 05:41:53;;;;;;;12.20;8.77;;;16.60;99.90;;;;;;5012812;28;20183;-70
2021/07/09 05:44:19;;;;;;;13.63;9.40;;;16.60;99.90;;;;;;5011243;28;20180;-70
2021/07/09 05:46:45;;;;;;;11.37;8.57;;;16.70;99.90;;;;;;5011218;28;20195;-70
2021/07/09 05:49:10;;;;;;;11.83;8.57;;;16.70;99.90;;;;;;5012331;28;20522;-70
2021/07/09 05:51:36;;;;;;;10.80;8.43;;;16.80;99.90;;;;;;5012343;28;20174;-70
2021/07/09 05:54:01;;;;;;;10.77;7.93;;;16.90;99.90;;;;;;5011458;28;20270;-70
2021/07/09 05:56:27;;;;;;;12.33;8.10;;;16.90;99.90;;;;;;5012556;28;20684;-70
2021/07/09 05:58:52;;;;;;;12.47;8.13;;;16.90;99.90;;;;;;4994550;28;20168;-70
2021/07/09 06:01:18;;;;;;;12.93;7.93;;;16.90;99.90;;;;;;5011138;28;20175;-70
2021/07/09 06:03:44;;;;;;;13.10;8.07;;;16.90;99.90;;;;;;5012270;28;20269;-70
2021/07/09 06:06:10;;;;;;;10.43;7.93;;;16.90;99.90;;;;;;5012153;28;20218;-70
2021/07/09 06:08:35;;;;;;;10.73;8.27;;;16.90;99.90;;;;;;5012130;28;20548;-70
2021/07/09 06:11:01;;;;;;;9.83;7.30;;;16.90;99.90;;;;;;5010954;28;20183;-70
2021/07/09 06:13:26;;;;;;;11.10;7.50;;;16.90;99.90;;;;;;5011099;28;20218;-70
2021/07/09 06:15:52;;;;;;;13.33;7.83;;;16.90;99.90;;;;;;5010948;28;20195;-70
2021/07/09 06:18:18;;;;;;;9.23;7.30;;;16.90;99.90;;;;;;5012120;28;20175;-70
2021/07/09 06:20:44;;;;;;;11.33;7.33;;;17.00;99.90;;;;;;5010629;28;20168;-70
2021/07/09 06:23:09;;;;;;;12.60;7.57;;;16.90;99.90;;;;;;5011966;28;20194;-70
2021/07/09 06:25:35;;;;;;;10.27;7.40;;;17.00;99.90;;;;;;5010700;28;20278;-70
2021/07/09 06:28:00;;;;;;;10.40;6.93;;;17.00;99.90;;;;;;5012583;28;20203;-70
2021/07/09 06:30:26;;;;;;;9.60;7.03;;;17.10;99.90;;;;;;5014413;28;20183;-70
2021/07/09 06:32:51;;;;;;;14.03;7.87;;;17.10;99.90;;;;;;5014530;28;20199;-70
2021/07/09 06:35:17;;;;;;;12.37;7.43;;;17.20;99.90;;;;;;5014635;28;20199;-70
2021/07/09 06:37:44;;;;;;;9.30;7.03;;;17.30;99.90;;;;;;5015754;28;20661;-70
2021/07/09 06:40:10;;;;;;;14.90;7.70;;;17.50;99.90;;;;;;5014289;28;20172;-70
2021/07/09 06:42:36;;;;;;;13.50;8.20;;;17.60;99.90;;;;;;5015661;28;20179;-70
2021/07/09 06:45:02;;;;;;;8.20;6.50;;;17.70;99.90;;;;;;4998220;28;20171;-70
2021/07/09 06:47:28;;;;;;;10.20;6.70;;;18.00;99.90;;;;;;5014342;28;20191;-70
2021/07/09 06:49:53;;;;;;;12.67;7.33;;;18.20;99.90;;;;;;5014186;28;20194;-70
2021/07/09 06:52:19;;;;;;;10.50;6.70;;;18.30;99.90;;;;;;5015604;28;20187;-70
2021/07/09 06:54:44;;;;;;;10.87;6.20;;;18.50;99.90;;;;;;5014090;28;20211;-70
2021/07/09 06:57:10;;;;;;;8.43;6.47;;;18.60;99.90;;;;;;5015374;28;20192;-70
2021/07/09 06:59:36;;;;;;;7.33;5.63;;;18.60;99.90;;;;;;4997730;28;20254;-70
2021/07/09 07:02:01;;;;;;;9.90;6.27;;;18.70;99.90;;;;;;5015413;28;20172;-70
2021/07/09 07:04:27;;;;;;;7.37;5.67;;;18.70;99.90;;;;;;5015430;28;20179;-70
2021/07/09 07:06:52;;;;;;;8.03;5.70;;;18.70;99.90;;;;;;4997572;28;20639;-70
2021/07/09 07:09:19;;;;;;;8.80;5.57;;;18.70;99.90;;;;;;5013806;28;20666;-70
2021/07/09 07:11:44;;;;;;;8.93;5.33;;;18.70;99.90;;;;;;5013916;28;20182;-70
2021/07/09 07:14:10;;;;;;;9.27;6.30;;;18.60;99.90;;;;;;5013802;28;20573;-70
2021/07/09 07:16:36;;;;;;;8.03;6.23;;;18.60;99.90;;;;;;5013844;28;20576;-70
2021/07/09 07:19:01;;;;;;;8.77;4.93;;;18.50;99.90;;;;;;4997268;28;20180;-70
2021/07/09 07:21:27;;;;;;;8.90;5.37;;;18.60;99.90;;;;;;5013752;28;20183;-70
2021/07/09 07:23:52;;;;;;;9.47;5.73;;;18.40;99.90;;;;;;4997372;28;20179;-70
2021/07/09 07:26:18;;;;;;;7.67;5.43;;;18.40;99.90;;;;;;5013766;28;20291;-70
2021/07/09 07:28:43;;;;;;;7.47;5.23;;;18.30;99.90;;;;;;5013296;28;20215;-70
2021/07/09 07:31:09;;;;;;;6.93;5.37;;;18.40;99.90;;;;;;5015016;28;20191;-70
2021/07/09 07:33:35;;;;;;;9.43;6.00;;;18.30;99.90;;;;;;5013366;28;20265;-70
2021/07/09 07:36:01;;;;;;;6.97;5.07;;;18.30;99.90;;;;;;4980840;28;20196;-70
2021/07/09 07:38:26;;;;;;;8.47;5.83;;;18.40;99.90;;;;;;5013384;28;20179;-70
2021/07/09 07:40:52;;;;;;;8.00;5.57;;;18.40;99.90;;;;;;5013629;28;20190;-70
2021/07/09 07:43:17;;;;;;;7.40;5.03;;;18.40;99.90;;;;;;5013715;28;20705;-70
2021/07/09 07:45:43;;;;;;;8.27;5.10;;;18.40;99.90;;;;;;5013532;28;20198;-70
2021/07/09 07:48:08;;;;;;;8.77;4.77;;;18.50;99.90;;;;;;4997636;28;20554;-70
2021/07/09 07:50:34;;;;;;;8.03;5.13;;;18.50;99.90;;;;;;4996598;28;20186;-70
2021/07/09 07:53:00;;;;;;;8.53;5.27;;;18.60;99.90;;;;;;4996982;28;20296;-70
2021/07/09 07:55:25;;;;;;;7.87;5.73;;;18.70;99.90;;;;;;4996900;28;20176;-70
2021/07/09 07:57:51;;;;;;;8.17;5.53;;;18.80;99.90;;;;;;5013401;28;20222;-70
2021/07/09 08:00:17;;;;;;;7.87;5.43;;;18.90;99.90;;;;;;4996781;28;20839;-70
2021/07/09 08:02:42;;;;;;;6.23;4.47;;;19.10;99.90;;;;;;5014617;28;20168;-70
2021/07/09 08:05:09;;;;;;;7.07;5.10;;;19.20;99.90;;;;;;5013086;28;20255;-70
2021/07/09 08:07:34;;;;;;;9.57;5.17;;;19.40;99.90;;;;;;4996742;28;20689;-70
2021/07/09 08:10:00;;;;;;;9.57;5.20;;;19.50;99.90;;;;;;4996697;28;20179;-70
2021/07/09 08:12:25;;;;;;;9.40;5.23;;;19.50;99.90;;;;;;5015182;28;20535;-70
2021/07/09 08:14:51;;;;;;;7.40;5.17;;;19.60;99.90;;;;;;5013486;28;20184;-70
2021/07/09 08:17:16;;;;;;;8.90;5.33;;;19.70;99.90;;;;;;4996556;28;20203;-70
2021/07/09 08:19:42;;;;;;;6.63;4.97;;;19.60;99.90;;;;;;5013818;28;20250;-70
2021/07/09 08:22:07;;;;;;;9.53;5.10;;;19.70;99.90;;;;;;5014000;28;20254;-70
2021/07/09 08:24:33;;;;;;;10.00;5.67;;;19.60;99.90;;;;;;5013844;28;20172;-70
2021/07/09 08:26:59;;;;;;;8.87;4.93;;;19.80;99.90;;;;;;5012425;28;20190;-70
2021/07/09 08:29:25;;;;;;;8.73;5.67;;;19.80;99.90;;;;;;5013904;28;20226;-70
2021/07/09 08:31:50;;;;;;;8.00;5.20;;;19.70;99.90;;;;;;5013969;28;20172;-70
2021/07/09 08:34:16;;;;;;;7.77;5.50;;;19.80;99.90;;;;;;5012553;28;20571;-70
2021/07/09 08:36:41;;;;;;;8.97;5.30;;;19.60;99.90;;;;;;5013812;28;20261;-70
2021/07/09 08:39:07;;;;;;;10.47;4.97;;;19.60;99.90;;;;;;5013723;28;20542;-70
2021/07/09 08:41:33;;;;;;;7.60;4.80;;;19.70;99.90;;;;;;5012856;28;20709;-70
2021/07/09 08:43:58;;;;;;;8.70;5.50;;;19.80;99.90;;;;;;5013807;28;20178;-70
2021/07/09 08:46:24;;;;;;;7.27;5.23;;;19.70;99.90;;;;;;5012631;28;20567;-70
2021/07/09 08:48:50;;;;;;;9.20;5.93;;;19.70;99.90;;;;;;5012198;28;20182;-70
2021/07/09 08:51:15;;;;;;;9.77;6.17;;;19.60;99.90;;;;;;4995999;28;20179;-70
2021/07/09 08:53:41;;;;;;;8.13;5.67;;;19.60;99.90;;;;;;5012338;28;20210;-70
2021/07/09 08:56:06;;;;;;;10.43;6.20;;;19.60;99.90;;;;;;5012355;28;20198;-71
2021/07/09 08:58:32;;;;;;;9.70;5.87;;;19.70;99.90;;;;;;5011881;28;20246;-71
2021/07/09 09:00:57;;;;;;;9.57;6.30;;;19.70;99.90;;;;;;5011967;28;20587;-71
2021/07/09 09:03:27;;;;;;;10.63;6.03;;;19.50;99.90;;;;;;5013381;28;20179;-71
2021/07/09 09:05:53;;;;;;;11.67;6.83;;;19.50;99.90;;;;;;5013065;28;20243;-71
2021/07/09 09:08:22;;;;;;;11.27;7.20;;;19.60;99.90;;;;;;5012762;28;20171;-71
2021/07/09 09:10:52;;;;;;;12.43;9.13;;;19.60;99.90;;;;;;4995488;28;20723;-71
2021/07/09 09:13:26;;;;;;;11.73;8.13;;;19.50;99.90;;;;;;5011900;28;20218;-71
2021/07/09 09:16:13;;;;;;;13.00;8.10;;;19.60;99.90;;;;;;4995611;28;20638;-71
2021/07/09 09:18:40;;;;;;;12.77;8.73;;;19.50;99.90;;;;;;5011893;28;20164;-71
2021/07/09 09:21:07;;;;;;;12.90;8.63;;;19.60;99.90;;;;;;5011901;28;20182;-71
2021/07/09 09:23:35;;;;;;;12.00;8.67;;;19.70;99.90;;;;;;5012999;28;20203;-71
2021/07/09 09:26:00;;;;;;;14.30;9.67;;;19.60;99.90;;;;;;5011482;28;20206;-71
2021/07/09 09:28:26;;;;;;;13.53;9.17;;;19.70;99.90;;;;;;5011712;28;20176;-71
2021/07/09 09:30:54;;;;;;;12.60;10.07;;;19.70;99.90;;;;;;4994908;28;20593;-71
2021/07/09 09:33:19;;;;;;;14.00;9.67;;;19.80;99.90;;;;;;5011350;28;20203;-71
2021/07/09 09:35:48;;;;;;;14.00;9.93;;;20.10;99.90;;;;;;4995145;28;20207;-71
2021/07/09 09:38:17;;;;;;;13.10;9.50;;;20.10;99.90;;;;;;5011572;28;20208;-71
2021/07/09 09:40:44;;;;;;;13.47;9.90;;;20.20;99.90;;;;;;5011263;28;20194;-71
2021/07/09 09:43:10;;;;;;;14.37;9.57;;;20.30;99.90;;;;;;5011471;28;20190;-71
2021/07/09 09:45:35;;;;;;;13.63;9.80;;;20.20;99.90;;;;;;5012700;28;20600;-71
2021/07/09 09:48:12;;;;;;;14.57;9.90;;;20.30;99.90;;;;;;5012530;28;20176;-71
2021/07/09 09:50:56;;;;;;;13.67;10.57;;;20.40;99.90;;;;;;4995305;28;20190;-71
2021/07/09 09:53:33;;;;;;;12.97;9.07;;;20.50;99.90;;;;;;4995028;28;20203;-71
2021/07/09 09:56:08;;;;;;;14.90;10.47;;;20.60;99.90;;;;;;5011243;28;20187;-71
2021/07/09 09:58:33;;;;;;;15.13;9.80;;;20.80;99.90;;;;;;4995021;28;20168;-71
2021/07/09 10:00:59;;;;;;;12.93;9.53;;;20.70;99.90;;;;;;4994811;28;20670;-71
2021/07/09 10:03:25;;;;;;;14.13;9.90;;;20.90;99.90;;;;;;4996159;28;20180;-71
2021/07/09 10:05:51;;;;;;;14.23;9.77;;;21.00;99.90;;;;;;5016394;28;20214;-71
2021/07/09 10:08:18;;;;;;;11.93;9.07;;;21.20;99.90;;;;;;4998987;28;20178;-71
2021/07/09 10:10:44;;;;;;;14.13;9.57;;;21.30;99.90;;;;;;4982732;28;20179;-71
2021/07/09 10:13:13;;;;;;;13.30;10.27;;;21.40;99.90;;;;;;4999005;28;20218;-71
2021/07/09 10:15:39;;;;;;;12.80;9.33;;;21.50;99.90;;;;;;5014839;28;20311;-71
2021/07/09 10:18:05;;;;;;;12.70;8.80;;;21.50;99.90;;;;;;5016185;28;20176;-71
2021/07/09 10:20:30;;;;;;;12.17;7.73;;;21.40;99.90;;;;;;4998683;28;20263;-71
2021/07/09 10:22:57;;;;;;;12.60;9.23;;;21.50;99.90;;;;;;5016751;28;20179;-71
2021/07/09 10:25:24;;;;;;;13.13;8.60;;;21.60;99.90;;;;;;4998583;28;20180;-71
2021/07/09 10:27:49;;;;;;;10.50;8.10;;;21.70;99.90;;;;;;5016412;28;20595;-71
2021/07/09 10:30:15;;;;;;;12.17;8.60;;;21.70;99.90;;;;;;5014729;28;20766;-71
2021/07/09 10:32:44;;;;;;;8.87;6.57;;;21.70;99.90;;;;;;5016006;28;20207;-71
2021/07/09 10:35:11;;;;;;;9.13;7.50;;;21.60;99.90;;;;;;5014709;28;20168;-71
2021/07/09 10:37:37;;;;;;;9.67;7.37;;;21.50;99.90;;;;;;5014780;28;20171;-71
2021/07/09 10:40:15;;;;;;;10.10;7.10;;;21.70;99.90;;;;;;4981970;28;20251;-71
2021/07/09 10:42:42;;;;;;;9.67;6.73;;;21.80;99.90;;;;;;4998727;28;20570;-71
2021/07/09 10:45:24;;;;;;;9.57;6.90;;;21.80;99.90;;;;;;4999015;28;20170;-71
2021/07/09 10:47:54;;;;;;;11.20;7.90;;;22.00;99.90;;;;;;5000473;28;20198;-71
2021/07/09 10:50:26;;;;;;;10.60;7.37;;;22.20;99.90;;;;;;5015505;28;20172;-71
2021/07/09 10:52:57;;;;;;;9.00;6.80;;;22.10;99.90;;;;;;5014417;28;20232;-71
2021/07/09 10:55:26;;;;;;;10.27;6.93;;;22.10;99.90;;;;;;5015516;28;20258;-71
2021/07/09 10:58:07;;;;;;;9.73;6.93;;;22.10;99.90;;;;;;5015313;28;20307;-71
2021/07/09 11:00:47;;;;;;;9.90;6.80;;;22.20;99.90;;;;;;5015528;28;20172;-71
2021/07/09 11:03:28;;;;;;;8.50;5.97;;;22.10;99.90;;;;;;5015449;28;20180;-71
2021/07/09 11:05:57;;;;;;;6.63;5.67;;;22.20;99.90;;;;;;5038566;23;20250;-83
2021/07/09 11:11:17;;;;;;;8.57;5.20;;;22.60;99.90;;;;;;5019525;28;20206;-82
2021/07/09 11:13:44;;;;;;;8.00;5.80;;;22.70;99.90;;;;;;4985611;28;20298;-82
2021/07/09 11:16:43;;;;;;;6.10;4.13;;;22.70;99.90;;;;;;4985031;28;20217;-84
2021/07/09 11:19:20;;;;;;;4.87;3.67;;;22.70;99.90;;;;;;5022963;28;20168;-83
2021/07/09 11:21:47;;;;;;;3.87;3.03;;;22.70;99.90;;;;;;5005744;28;20521;-83
2021/07/09 11:24:24;;;;;;;4.53;3.10;;;22.70;99.90;;;;;;5005099;28;20167;-83
2021/07/09 11:26:51;;;;;;;4.33;3.50;;;22.70;99.90;;;;;;4989473;28;20206;-82
2021/07/09 11:29:21;;;;;;;4.43;3.77;;;22.80;99.90;;;;;;4988244;28;20184;-84
2021/07/09 11:31:47;;;;;;;4.73;3.23;;;22.90;99.90;;;;;;5005182;28;20184;-83
2021/07/09 11:34:13;;;;;;;4.13;2.70;;;22.90;99.90;;;;;;5002798;28;20258;-84
2021/07/09 11:36:43;;;;;;;5.43;3.70;;;23.00;99.90;;;;;;5002293;28;20188;-82
2021/07/09 11:39:19;;;;;;;3.83;3.33;;;23.00;99.90;;;;;;5000842;28;20182;-83
2021/07/09 11:42:00;;;;;;;4.53;3.10;;;23.10;99.90;;;;;;4984986;28;20176;-83
2021/07/09 11:44:29;;;;;;;5.03;3.30;;;23.10;99.90;;;;;;5001101;28;20190;-83
2021/07/09 11:47:00;;;;;;;4.33;3.33;;;23.10;99.90;;;;;;4984986;28;20637;-83
2021/07/09 11:49:27;;;;;;;3.83;2.90;;;23.10;99.90;;;;;;4983882;28;20259;-83
2021/07/09 11:51:58;;;;;;;4.13;2.93;;;23.10;99.90;;;;;;4984274;28;20168;-83
2021/07/09 11:54:28;;;;;;;5.33;3.47;;;23.00;99.90;;;;;;4983942;28;20291;-83
2021/07/09 11:56:56;;;;;;;3.93;3.23;;;23.10;99.90;;;;;;4983737;28;20191;-83
2021/07/09 11:59:22;;;;;;;3.60;2.97;;;23.20;99.90;;;;;;4999307;28;20317;-83
2021/07/09 12:02:13;;;;;;;5.37;3.17;;;23.10;99.90;;;;;;4983931;28;20207;-83
2021/07/09 12:05:06;;;;;;;5.63;3.57;;;23.40;99.90;;;;;;4984381;28;20565;-82
2021/07/09 12:07:41;;;;;;;7.53;4.20;;;23.50;99.90;;;;;;4984916;28;20219;-83
2021/07/09 12:10:14;;;;;;;5.87;4.10;;;23.60;99.90;;;;;;5000836;28;20642;-83
2021/07/09 12:12:44;;;;;;;5.03;3.80;;;23.60;99.90;;;;;;4984549;28;20226;-83
2021/07/09 12:15:17;;;;;;;5.77;4.07;;;23.60;99.90;;;;;;4983136;28;20203;-82
2021/07/09 12:17:52;;;;;;;5.10;3.77;;;23.60;99.90;;;;;;4983920;28;20203;-83
2021/07/09 12:20:19;;;;;;;4.53;3.50;;;23.40;99.90;;;;;;5000479;28;20533;-83
2021/07/09 12:22:49;;;;;;;5.47;3.27;;;23.20;99.90;;;;;;4984056;28;20183;-83
2021/07/09 12:25:25;;;;;;;4.23;3.40;;;23.00;99.90;;;;;;4983048;28;20172;-83
2021/07/09 12:27:52;;;;;;;4.83;3.23;;;22.90;99.90;;;;;;4982251;28;20258;-83
2021/07/09 12:30:20;;;;;;;4.20;3.20;;;23.00;99.90;;;;;;4982804;28;20175;-83
2021/07/09 12:32:51;;;;;;;5.97;4.37;;;23.10;99.90;;;;;;4982751;28;20175;-82
2021/07/09 12:35:17;;;;;;;6.03;3.50;;;23.30;99.90;;;;;;4982540;28;20198;-81
2021/07/09 12:37:43;;;;;;;4.07;3.60;;;23.50;99.90;;;;;;4982778;28;20199;-82